Time;durP1;ratioP1;P1;durP2;ratioP2;P2;SDS_P1;SDS_P2;PMS_P1;PMS_P2;Temp;Humidity;BMP_temperature;BMP_pressure;BME280_temperature;BME280_humidity;BME280_pressure;Samples;Min_cycle;Max_cycle;Signal;HPM_P1;HPM_P2
2022/04/19 00:03:15;;;;;;;13.00;6.30;;;;;;;8.22;45.29;98541.24;233326;1217;140081;-59
2022/04/19 00:08:19;;;;;;;10.30;5.50;;;;;;;8.23;45.20;98538.55;233356;1217;138184;-60
2022/04/19 00:13:22;;;;;;;9.30;5.40;;;;;;;8.22;45.48;98534.33;233494;1216;138314;-59
2022/04/19 00:18:26;;;;;;;8.30;5.00;;;;;;;8.19;45.22;98530.25;233412;1216;138707;-61
2022/04/19 00:23:29;;;;;;;10.80;5.20;;;;;;;8.18;45.26;98522.92;233291;1217;138561;-61
2022/04/19 00:28:32;;;;;;;6.40;4.10;;;;;;;8.19;45.37;98521.30;232917;1217;139170;-59
2022/04/19 00:33:38;;;;;;;8.60;4.30;;;;;;;8.20;44.88;98511.89;232895;1217;138270;-60
2022/04/19 00:38:42;;;;;;;8.40;3.70;;;;;;;8.19;44.74;98501.32;233290;1217;139121;-59
2022/04/19 00:43:45;;;;;;;6.70;3.70;;;;;;;8.19;44.62;98499.19;233358;1217;138225;-60
2022/04/19 00:48:48;;;;;;;7.70;4.10;;;;;;;8.20;44.52;98496.13;233383;1217;138200;-60
2022/04/19 00:53:52;;;;;;;7.60;3.70;;;;;;;8.21;44.53;98496.23;233226;1217;139260;-59
2022/04/19 00:58:55;;;;;;;6.40;3.60;;;;;;;8.20;44.47;98489.08;233281;1217;138715;-61
2022/04/19 01:03:59;;;;;;;9.50;4.00;;;;;;;8.16;44.31;98484.89;233477;1217;138578;-61
2022/04/19 01:09:02;;;;;;;7.30;3.50;;;;;;;8.16;44.24;98478.67;233239;1217;138571;-61
2022/04/19 01:14:05;;;;;;;6.00;3.40;;;;;;;8.15;44.24;98473.09;233232;1217;138183;-60
2022/04/19 01:19:17;;;;;;;7.50;3.90;;;;;;;8.15;44.27;98467.65;233450;1217;137988;-60
2022/04/19 01:24:23;;;;;;;7.10;3.80;;;;;;;8.15;44.19;98463.90;233223;1217;138010;-61
2022/04/19 01:29:27;;;;;;;6.80;3.50;;;;;;;8.14;44.09;98463.66;233348;1217;138889;-62
2022/04/19 01:34:30;;;;;;;6.90;3.30;;;;;;;8.11;44.32;98455.52;233510;1217;138389;-61
2022/04/19 01:44:57;;;;;;;8.60;3.80;;;;;;;8.09;44.26;98452.63;233566;1217;137966;-59
2022/04/19 01:50:01;;;;;;;10.30;4.30;;;;;;;8.08;44.60;98457.33;233585;1217;138820;-59
2022/04/19 01:55:07;;;;;;;9.00;4.90;;;;;;;8.04;44.67;98451.86;233704;1217;139085;-57
2022/04/19 02:00:12;;;;;;;11.60;5.20;;;;;;;8.01;44.69;98446.95;232256;1217;138701;-59
2022/04/19 02:05:17;;;;;;;10.70;6.20;;;;;;;7.98;45.04;98447.63;233531;1217;138379;-59
2022/04/19 02:10:20;;;;;;;12.30;6.00;;;;;;;7.99;45.28;98457.08;233363;1217;138526;-61
2022/04/19 02:15:26;;;;;;;11.80;5.90;;;;;;;8.00;45.55;98457.05;233518;1217;138568;-62
2022/04/19 02:20:31;;;;;;;14.60;7.10;;;;;;;8.01;45.79;98465.30;233515;1219;139013;-62
2022/04/19 02:25:34;;;;;;;6.40;2.90;;;;;;;8.02;45.55;98468.93;233633;1217;138462;-61
2022/04/19 02:30:41;;;;;;;5.20;2.20;;;;;;;8.08;45.35;98467.73;233485;1218;139817;-61
2022/04/19 02:35:52;;;;;;;8.00;3.30;;;;;;;8.13;45.02;98472.16;233566;1217;138079;-59
2022/04/19 02:40:56;;;;;;;8.30;4.30;;;;;;;8.14;45.61;98476.34;233503;1217;138141;-61
2022/04/19 02:45:59;;;;;;;14.00;5.70;;;;;;;8.12;45.75;98483.70;233512;1218;138365;-60
2022/04/19 02:51:07;;;;;;;10.90;5.60;;;;;;;8.07;45.66;98482.98;233504;1217;138432;-61
2022/04/19 02:56:10;;;;;;;9.60;4.70;;;;;;;8.02;45.80;98485.73;233633;1217;138692;-61
2022/04/19 03:01:16;;;;;;;7.00;3.30;;;;;;;7.96;46.05;98485.57;233616;1217;138103;-61
2022/04/19 03:06:21;;;;;;;5.30;3.30;;;;;;;7.89;46.51;98488.45;233595;1217;138670;-59
2022/04/19 03:11:24;;;;;;;6.90;3.30;;;;;;;7.82;46.39;98486.06;233491;1217;138734;-61
2022/04/19 03:16:33;;;;;;;6.70;2.90;;;;;;;7.74;46.57;98488.61;233484;1218;137984;-60
2022/04/19 03:21:36;;;;;;;4.70;3.10;;;;;;;7.67;46.79;98486.41;233530;1217;138366;-61
2022/04/19 03:32:01;;;;;;;63.30;51.50;;;;;;;7.50;47.60;98481.95;233685;1217;140016;-60
2022/04/19 03:37:05;;;;;;;237.00;183.20;;;;;;;7.55;48.30;98484.44;233662;1217;139317;-60
2022/04/19 03:42:09;;;;;;;11.30;7.60;;;;;;;7.57;48.73;98480.09;233523;1217;139028;-61
2022/04/19 03:47:12;;;;;;;6.20;3.70;;;;;;;7.52;48.70;98480.77;233531;1217;139545;-62
2022/04/19 03:52:15;;;;;;;277.00;195.50;;;;;;;7.47;49.06;98476.69;233518;1217;139155;-62
2022/04/19 03:57:19;;;;;;;14.70;9.70;;;;;;;7.48;49.14;98478.36;233608;1217;139994;-60
2022/04/19 04:02:22;;;;;;;6.20;3.70;;;;;;;7.47;49.45;98480.72;233573;1217;138496;-60
2022/04/19 04:07:28;;;;;;;6.60;3.00;;;;;;;7.43;49.87;98483.61;233128;1217;138534;-60
2022/04/19 04:12:31;;;;;;;;;;;;;;;7.39;49.81;98484.21;233603;1217;138158;-61
2022/04/19 04:17:34;;;;;;;18.80;10.30;;;;;;;7.39;50.48;98484.56;233198;1219;124864;-61
2022/04/19 04:22:37;;;;;;;9.50;4.40;;;;;;;7.41;50.68;98487.95;233486;1216;138770;-61
2022/04/19 04:27:41;;;;;;;6.60;3.90;;;;;;;7.35;50.94;98487.77;233548;1217;138065;-60
2022/04/19 04:32:44;;;;;;;8.40;4.00;;;;;;;7.30;51.26;98487.52;232862;1217;137893;-61
2022/04/19 04:37:47;;;;;;;9.20;4.10;;;;;;;7.23;51.69;98485.80;233518;1217;138491;-62
2022/04/19 04:42:51;;;;;;;6.60;4.00;;;;;;;7.14;51.94;98489.13;233665;1217;138339;-61
2022/04/19 04:53:16;;;;;;;7.50;3.90;;;;;;;7.00;52.45;98488.02;233564;1217;138251;-61
2022/04/19 04:58:30;;;;;;;6.00;3.60;;;;;;;6.99;52.51;98484.36;233657;1217;138191;-62
2022/04/19 05:03:33;;;;;;;8.80;4.50;;;;;;;6.98;52.72;98483.69;233708;1217;138732;-60
2022/04/19 05:08:37;;;;;;;6.50;3.80;;;;;;;6.99;53.14;98481.69;233098;1217;138534;-58
2022/04/19 05:13:41;;;;;;;13.50;4.40;;;;;;;7.08;53.40;98478.02;233725;1219;138620;-62
2022/04/19 05:18:44;;;;;;;10.50;3.60;;;;;;;7.13;53.03;98474.56;232378;1218;139522;-61
2022/04/19 05:23:48;;;;;;;8.40;3.60;;;;;;;7.14;53.07;98478.23;232622;1217;138468;-61
2022/04/19 05:28:55;;;;;;;7.30;4.00;;;;;;;7.11;53.12;98470.09;233491;1217;138754;-60
2022/04/19 05:33:59;;;;;;;10.70;4.80;;;;;;;7.08;52.97;98470.08;232971;1217;139202;-59
2022/04/19 05:39:03;;;;;;;8.50;4.00;;;;;;;7.07;53.05;98468.38;232485;1217;138991;-63
2022/04/19 05:44:07;;;;;;;8.30;5.00;;;;;;;7.03;53.02;98468.41;232275;1217;139530;-62
2022/04/19 05:49:10;;;;;;;11.40;5.10;;;;;;;7.04;53.19;98463.23;233727;1217;138954;-62
2022/04/19 05:54:14;;;;;;;11.20;5.20;;;;;;;7.13;53.69;98465.55;233523;1217;138439;-63
2022/04/19 05:59:19;;;;;;;8.20;4.80;;;;;;;7.25;53.68;98467.17;233626;1217;138429;-62
2022/04/19 06:09:44;;;;;;;7.80;4.70;;;;;;;7.39;53.44;98464.27;233593;1218;138420;-62
2022/04/19 06:14:47;;;;;;;8.30;5.20;;;;;;;7.48;53.56;98467.77;233495;1217;138411;-60
2022/04/19 06:19:50;;;;;;;9.10;5.80;;;;;;;7.58;53.58;98473.19;233571;1217;139076;-61
2022/04/19 06:24:57;;;;;;;10.90;5.70;;;;;;;7.67;53.50;98470.71;233674;1217;139432;-61
2022/04/19 06:30:00;;;;;;;27.60;7.30;;;;;;;7.75;53.52;98466.69;233589;1217;138328;-61
2022/04/19 06:35:04;;;;;;;10.60;6.80;;;;;;;7.87;53.74;98470.77;233584;1217;138406;-62
2022/04/19 06:40:11;;;;;;;14.90;7.00;;;;;;;8.02;54.02;98470.21;232728;1217;138404;-63
2022/04/19 06:45:14;;;;;;;11.20;6.80;;;;;;;8.11;53.99;98465.57;232925;1217;138512;-63
2022/04/19 06:50:23;;;;;;;17.70;7.20;;;;;;;8.20;53.95;98464.68;233505;1217;138945;-62
2022/04/19 06:55:28;;;;;;;12.90;8.30;;;;;;;8.28;53.92;98468.44;233604;1219;138221;-62
2022/04/19 07:00:32;;;;;;;14.00;7.50;;;;;;;8.39;54.12;98473.42;233503;1217;139671;-61
2022/04/19 07:05:36;;;;;;;11.10;7.70;;;;;;;8.49;54.17;98470.86;233429;1217;138598;-61
2022/04/19 07:10:39;;;;;;;14.90;7.80;;;;;;;8.57;53.99;98473.38;233647;1217;138577;-62
2022/04/19 07:16:11;;;;;;;11.60;8.20;;;;;;;8.64;53.90;98485.27;233316;1217;139094;-62
2022/04/19 07:26:56;;;;;;;16.00;8.90;;;;;;;8.82;53.73;98491.41;233594;1217;139066;-61
2022/04/19 07:32:00;;;;;;;15.70;7.70;;;;;;;8.88;53.68;98502.17;232986;1217;138612;-62
2022/04/19 07:37:25;;;;;;;12.00;8.30;;;;;;;8.91;53.48;98504.96;233721;1217;139069;-63
2022/04/19 07:42:28;;;;;;;12.60;8.30;;;;;;;8.95;53.29;98502.58;233562;1217;138521;-63
2022/04/19 07:47:32;;;;;;;11.60;7.90;;;;;;;8.96;53.34;98505.21;232399;1217;138880;-61
2022/04/19 07:52:36;;;;;;;94.30;59.50;;;;;;;9.01;53.66;98503.66;233572;1217;138371;-63
2022/04/19 07:57:39;;;;;;;22.80;13.20;;;;;;;9.18;53.79;98504.65;233604;1217;138387;-61
2022/04/19 08:02:43;;;;;;;13.90;8.40;;;;;;;9.28;53.57;98504.70;233370;1217;138588;-61
2022/04/19 08:07:50;;;;;;;11.70;8.20;;;;;;;9.34;53.46;98508.54;233426;1217;139357;-63
2022/04/19 08:12:53;;;;;;;13.20;8.30;;;;;;;9.42;53.38;98509.79;233446;1217;138576;-63
2022/04/19 08:17:57;;;;;;;11.80;7.30;;;;;;;9.46;53.07;98514.99;233358;1217;138962;-62
2022/04/19 08:23:00;;;;;;;10.70;7.30;;;;;;;9.47;52.83;98517.95;232911;1217;139017;-63
2022/04/19 08:28:04;;;;;;;10.90;7.50;;;;;;;9.54;52.77;98519.63;233522;1217;139891;-61
2022/04/19 08:33:08;;;;;;;11.90;7.20;;;;;;;9.66;52.80;98524.34;233398;1217;139890;-63
2022/04/19 08:38:12;;;;;;;10.60;7.30;;;;;;;9.79;52.57;98523.66;233011;1217;139172;-61
2022/04/19 08:43:15;;;;;;;14.30;7.10;;;;;;;9.84;52.41;98519.75;232872;1217;138477;-60
2022/04/19 08:48:20;;;;;;;10.50;7.20;;;;;;;9.95;52.23;98518.33;233398;1217;140038;-61
2022/04/19 08:58:45;;;;;;;12.20;8.00;;;;;;;10.15;52.10;98521.92;233551;1217;139458;-61
2022/04/19 09:03:48;;;;;;;18.60;11.90;;;;;;;10.29;52.12;98524.91;233244;1217;138287;-59
2022/04/19 09:09:10;;;;;;;13.10;8.30;;;;;;;10.35;51.84;98528.17;233406;1217;139180;-61
2022/04/19 09:14:14;;;;;;;11.60;8.00;;;;;;;10.37;51.32;98530.20;233358;1217;139250;-62
2022/04/19 09:19:27;;;;;;;12.80;8.20;;;;;;;10.43;51.15;98536.34;233579;1217;138880;-60
2022/04/19 09:24:33;;;;;;;14.00;8.70;;;;;;;10.41;50.96;98530.81;233421;1217;139473;-60
2022/04/19 09:29:36;;;;;;;10.70;7.90;;;;;;;10.48;51.11;98533.85;233362;1219;139175;-61
2022/04/19 09:34:46;;;;;;;11.40;8.30;;;;;;;10.57;50.87;98536.75;233430;1220;139262;-61
2022/04/19 09:39:53;;;;;;;14.50;8.60;;;;;;;10.56;50.79;98539.00;233410;1217;139348;-59
2022/04/19 09:44:56;;;;;;;184.50;104.10;;;;;;;10.56;50.54;98542.16;233469;1217;138753;-60
2022/04/19 09:50:00;;;;;;;21.20;12.40;;;;;;;10.72;50.88;98541.91;233291;1217;139424;-60
2022/04/19 09:55:05;;;;;;;10.90;8.30;;;;;;;10.78;50.44;98543.48;233455;1220;139755;-62
2022/04/19 10:00:16;;;;;;;13.00;8.30;;;;;;;10.82;50.41;98543.02;233499;1217;140673;-62
2022/04/19 10:10:42;;;;;;;11.80;7.30;;;;;;;10.90;50.21;98551.27;233247;1217;140666;-63
2022/04/19 10:15:45;;;;;;;8.70;6.80;;;;;;;11.16;50.23;98555.27;233515;1216;139084;-62
2022/04/19 10:20:53;;;;;;;11.90;7.00;;;;;;;11.24;49.90;98559.85;233399;1217;138617;-62
2022/04/19 10:26:21;;;;;;;11.90;7.60;;;;;;;11.09;48.77;98563.40;233431;1217;139867;-65
2022/04/19 10:31:31;;;;;;;11.70;7.70;;;;;;;10.95;48.76;98564.98;233592;1217;141377;-64
2022/04/19 10:36:37;;;;;;;9.00;7.10;;;;;;;10.85;48.98;98570.11;233459;1217;138960;-61
2022/04/19 10:42:05;;;;;;;10.60;7.10;;;;;;;10.86;48.61;98566.99;233385;1217;139465;-64
2022/04/19 10:47:15;;;;;;;14.30;7.20;;;;;;;10.85;48.56;98564.77;233486;1217;139043;-63
2022/04/19 10:52:37;;;;;;;10.60;7.40;;;;;;;10.87;48.87;98565.15;233416;1217;139111;-64
2022/04/19 11:03:18;;;;;;;8.80;6.90;;;;;;;11.47;49.09;98561.17;233747;1217;138812;-64
2022/04/19 11:08:22;;;;;;;10.30;7.10;;;;;;;11.57;48.51;98565.21;233520;1217;138771;-63
2022/04/19 11:13:27;;;;;;;7.70;6.60;;;;;;;11.43;47.66;98564.35;233725;1217;138946;-64
2022/04/19 11:18:36;;;;;;;8.70;6.10;;;;;;;11.26;47.82;98563.65;233595;1217;139195;-64
2022/04/19 11:23:57;;;;;;;8.80;6.40;;;;;;;11.32;47.90;98562.43;233613;1217;138909;-63
2022/04/19 11:29:11;;;;;;;9.40;6.60;;;;;;;11.43;47.66;98565.95;233580;1217;138659;-65
2022/04/19 11:34:16;;;;;;;7.40;5.70;;;;;;;11.60;47.72;98563.45;233756;1217;139492;-64
2022/04/19 11:50:07;;;;;;;7.50;6.20;;;;;;;12.21;46.70;98563.71;233428;1217;138594;-63
2022/04/19 11:55:10;;;;;;;8.10;6.20;;;;;;;12.17;46.26;98564.50;233793;1217;139436;-63
2022/04/19 12:00:19;;;;;;;7.20;5.80;;;;;;;12.11;46.16;98564.65;233600;1217;139342;-64
2022/04/19 12:05:26;;;;;;;6.40;5.10;;;;;;;12.15;45.56;98567.92;233240;1217;139181;-62
2022/04/19 12:10:30;;;;;;;6.10;4.80;;;;;;;12.13;45.40;98565.16;233575;1217;138947;-63
2022/04/19 12:15:38;;;;;;;6.60;4.90;;;;;;;12.48;45.98;98562.16;233258;1217;139386;-62
2022/04/19 12:20:45;;;;;;;6.30;4.70;;;;;;;12.76;45.57;98562.09;233575;1217;138590;-63
2022/04/19 12:26:07;;;;;;;6.60;5.00;;;;;;;12.75;45.06;98564.08;233496;1217;138971;-62
2022/04/19 12:31:29;;;;;;;6.20;4.80;;;;;;;12.68;44.69;98560.58;233510;1217;139364;-63
2022/04/19 12:36:48;;;;;;;6.20;4.80;;;;;;;12.78;44.94;98554.74;232575;1219;233140;-60
2022/04/19 12:41:54;;;;;;;7.80;5.20;;;;;;;12.90;44.39;98556.17;233387;1220;139085;-61
2022/04/19 12:46:57;;;;;;;6.10;5.00;;;;;;;12.83;44.11;98550.67;232339;1217;138291;-59
2022/04/19 12:52:04;;;;;;;7.80;5.10;;;;;;;13.14;44.90;98553.00;232363;1217;138907;-61
2022/04/19 12:57:15;;;;;;;6.00;4.90;;;;;;;13.63;44.92;98546.23;232706;1217;139590;-60
2022/04/19 13:02:19;;;;;;;7.50;6.20;;;;;;;14.14;44.41;98546.06;233549;1217;138947;-62
2022/04/19 13:12:52;;;;;;;6.60;5.10;;;;;;;15.03;43.68;98541.73;232935;1219;139811;-59
2022/04/19 13:17:55;;;;;;;6.40;5.60;;;;;;;15.41;43.20;98534.96;233643;1217;138583;-60
2022/04/19 13:22:59;;;;;;;6.90;5.40;;;;;;;15.43;42.57;98545.55;233328;1217;138664;-61
2022/04/19 13:28:03;;;;;;;8.80;6.40;;;;;;;15.58;42.62;98540.83;233350;1217;138999;-62
2022/04/19 13:33:06;;;;;;;10.20;5.60;;;;;;;16.06;42.52;98540.30;233585;1217;139338;-62
2022/04/19 13:38:24;;;;;;;8.80;5.00;;;;;;;16.06;41.56;98543.58;233691;1217;138649;-63
2022/04/19 13:43:27;;;;;;;6.80;5.30;;;;;;;15.75;41.07;98550.51;233379;1215;138577;-63
2022/04/19 13:48:30;;;;;;;6.10;4.70;;;;;;;15.50;40.93;98551.48;232102;1217;138613;-63
2022/04/19 13:53:34;;;;;;;7.60;5.30;;;;;;;15.36;40.64;98549.57;232919;1217;138807;-61
2022/04/19 13:58:37;;;;;;;7.50;5.30;;;;;;;15.35;41.30;98544.64;233200;1219;138661;-62
2022/04/19 14:03:40;;;;;;;5.80;5.00;;;;;;;16.00;41.61;98555.17;233385;1217;139458;-63
2022/04/19 14:08:44;;;;;;;5.60;4.80;;;;;;;16.60;40.99;98547.47;232838;1217;139473;-62
2022/04/19 14:13:48;;;;;;;8.10;5.20;;;;;;;17.04;40.43;98550.25;232517;1217;138902;-63
2022/04/19 14:18:51;;;;;;;23.10;13.40;;;;;;;17.42;40.11;98555.90;232294;1217;138485;-58
2022/04/19 14:23:55;;;;;;;11.20;6.80;;;;;;;17.69;39.13;98560.89;231961;1217;139352;-60
2022/04/19 14:34:20;;;;;;;6.20;5.40;;;;;;;17.31;37.89;98568.09;232593;1217;138581;-62
2022/04/19 14:39:24;;;;;;;7.60;5.60;;;;;;;17.01;37.64;98568.52;233429;1217;139275;-60
2022/04/19 14:44:27;;;;;;;8.10;5.70;;;;;;;16.69;37.91;98571.14;233439;1217;138644;-61
2022/04/19 14:49:31;;;;;;;7.20;5.40;;;;;;;16.31;37.73;98572.05;233425;1217;138612;-61
2022/04/19 14:54:34;;;;;;;7.90;5.30;;;;;;;16.15;38.16;98578.89;233520;1217;138649;-62
2022/04/19 14:59:39;;;;;;;7.60;5.60;;;;;;;16.19;38.47;98579.79;233367;1219;138701;-61
2022/04/19 15:04:43;;;;;;;10.20;6.10;;;;;;;16.07;38.31;98578.86;233277;1217;139492;-60
2022/04/19 15:09:46;;;;;;;9.80;5.40;;;;;;;15.98;38.30;98579.92;233429;1220;139777;-62
2022/04/19 15:14:49;;;;;;;9.40;5.40;;;;;;;15.75;38.12;98584.16;233462;1217;139072;-61
2022/04/19 15:19:52;;;;;;;6.50;5.00;;;;;;;15.59;38.05;98593.23;233620;1217;138584;-59
2022/04/19 15:24:56;;;;;;;6.30;4.80;;;;;;;15.51;38.55;98593.45;233477;1217;138546;-61
2022/04/19 15:29:59;;;;;;;6.70;5.00;;;;;;;15.62;38.59;98593.92;233546;1217;140290;-62
2022/04/19 15:35:02;;;;;;;5.80;4.60;;;;;;;15.80;38.23;98595.16;233461;1217;139351;-62
2022/04/19 15:40:06;;;;;;;5.80;4.90;;;;;;;15.68;37.96;98595.31;233359;1217;140935;-62
2022/04/19 15:45:10;;;;;;;5.70;4.90;;;;;;;15.43;37.18;98592.52;233518;1217;140097;-63
2022/04/19 15:50:14;;;;;;;6.90;5.20;;;;;;;14.94;37.02;98594.69;233579;1218;138490;-62
2022/04/19 15:55:17;;;;;;;6.70;5.00;;;;;;;14.49;36.84;98601.59;233446;1217;138579;-63
2022/04/19 16:00:21;;;;;;;8.80;4.70;;;;;;;14.23;37.16;98608.05;233635;1217;138770;-63
2022/04/19 16:05:24;;;;;;;6.20;4.80;;;;;;;14.54;37.62;98605.13;233455;1217;138583;-61
2022/04/19 16:10:27;;;;;;;6.80;5.20;;;;;;;14.92;37.50;98601.03;233454;1217;138302;-62
2022/04/19 16:15:30;;;;;;;7.40;5.70;;;;;;;14.97;37.26;98605.67;231906;1217;139628;-57
2022/04/19 16:25:59;;;;;;;8.40;6.00;;;;;;;14.38;37.17;98610.95;233580;1217;139815;-60
2022/04/19 16:31:05;;;;;;;9.20;6.00;;;;;;;14.23;37.22;98615.06;233461;1217;138878;-60
2022/04/19 16:36:08;;;;;;;10.30;5.70;;;;;;;13.99;37.14;98618.45;233231;1217;139246;-60
2022/04/19 16:41:11;;;;;;;7.90;5.30;;;;;;;13.72;37.46;98631.06;233453;1217;138875;-61
2022/04/19 16:46:14;;;;;;;9.80;5.90;;;;;;;13.36;37.45;98633.96;233418;1217;138562;-59
2022/04/19 16:51:21;;;;;;;7.80;6.30;;;;;;;12.97;37.77;98641.77;231768;1217;139653;-61
2022/04/19 16:56:28;;;;;;;10.00;6.60;;;;;;;12.63;38.26;98644.27;232635;1217;140322;-60
2022/04/19 17:01:32;;;;;;;9.60;6.10;;;;;;;12.34;39.04;98653.23;233507;1217;138843;-61
2022/04/19 17:06:36;;;;;;;10.50;6.80;;;;;;;12.21;39.31;98662.02;233323;1217;138567;-61
2022/04/19 17:11:44;;;;;;;9.70;6.50;;;;;;;11.92;39.27;98669.71;233389;1219;139790;-59
2022/04/19 17:16:49;;;;;;;10.10;6.60;;;;;;;11.64;39.71;98680.08;233585;1219;140756;-61
2022/04/19 17:21:52;;;;;;;11.70;6.60;;;;;;;11.43;39.87;98682.11;233803;1218;138608;-61
2022/04/19 17:26:56;;;;;;;9.10;6.60;;;;;;;11.26;40.19;98690.92;233840;1217;140622;-59
2022/04/19 17:31:59;;;;;;;8.60;6.60;;;;;;;11.07;40.42;98695.13;234136;1216;138152;-60
2022/04/19 17:37:03;;;;;;;33.60;20.80;;;;;;;10.93;40.87;98704.96;233480;1217;138728;-63
2022/04/19 17:42:06;;;;;;;10.30;7.00;;;;;;;10.83;41.39;98715.59;233422;1219;139010;-64
2022/04/19 17:47:10;;;;;;;10.90;6.30;;;;;;;10.66;41.54;98724.01;233359;1217;139586;-61
2022/04/19 17:57:34;;;;;;;12.20;7.90;;;;;;;10.31;42.07;98734.67;233322;1219;139525;-61
2022/04/19 18:02:37;;;;;;;9.60;6.80;;;;;;;10.15;42.36;98742.24;233291;1219;139850;-60
2022/04/19 18:07:41;;;;;;;9.60;6.60;;;;;;;10.01;42.62;98751.64;233391;1219;138708;-62
2022/04/19 18:12:44;;;;;;;9.70;7.10;;;;;;;9.88;42.83;98756.75;233337;1217;138807;-60
2022/04/19 18:17:47;;;;;;;13.80;8.00;;;;;;;9.78;42.99;98761.48;233289;1217;138827;-63
2022/04/19 18:28:13;;;;;;;15.20;9.90;;;;;;;9.56;43.46;98771.20;233337;1219;140488;-65
2022/04/19 18:33:16;;;;;;;15.10;9.30;;;;;;;9.44;43.73;98779.69;233415;1217;139212;-63
2022/04/19 18:38:19;;;;;;;17.50;9.30;;;;;;;9.35;44.12;98790.73;233440;1217;138940;-62
2022/04/19 18:43:23;;;;;;;18.30;9.80;;;;;;;9.24;44.39;98792.95;233352;1217;138795;-62
2022/04/19 18:48:26;;;;;;;14.50;9.70;;;;;;;9.16;44.65;98795.03;233306;1217;139102;-64
2022/04/19 18:53:30;;;;;;;15.70;10.10;;;;;;;9.08;44.87;98798.02;233261;1217;139552;-63
2022/04/19 18:58:33;;;;;;;154.60;83.60;;;;;;;9.00;45.10;98801.11;233318;1217;138995;-61
2022/04/19 19:03:36;;;;;;;22.40;13.80;;;;;;;8.98;45.35;98799.98;233390;1217;139309;-63
2022/04/19 19:08:41;;;;;;;18.40;11.60;;;;;;;8.90;45.38;98805.80;233348;1216;138930;-61
2022/04/19 19:13:44;;;;;;;181.80;126.30;;;;;;;8.80;45.59;98810.81;233955;1217;139760;-61
2022/04/19 19:18:47;;;;;;;36.50;20.30;;;;;;;8.78;45.98;98814.29;233906;1217;139192;-64
2022/04/19 19:23:52;;;;;;;23.00;13.90;;;;;;;8.75;45.92;98818.20;233411;1217;138827;-63
2022/04/19 19:28:55;;;;;;;20.90;12.50;;;;;;;8.65;45.91;98818.58;233316;1217;139176;-62
2022/04/19 19:33:59;;;;;;;25.50;13.80;;;;;;;8.57;45.88;98823.13;233352;1217;138636;-61
2022/04/19 19:39:03;;;;;;;21.40;12.90;;;;;;;8.50;45.93;98822.75;233392;1217;139426;-60
2022/04/19 19:44:06;;;;;;;18.60;12.10;;;;;;;8.47;45.89;98829.14;233355;1219;138849;-60
2022/04/19 19:49:09;;;;;;;346.00;261.30;;;;;;;8.42;46.26;98836.48;233332;1217;138779;-62
2022/04/19 19:54:14;;;;;;;30.60;20.40;;;;;;;8.57;46.72;98837.45;233266;1217;139444;-61
2022/04/19 19:59:17;;;;;;;20.10;12.30;;;;;;;8.57;46.11;98838.31;233347;1217;139133;-62
2022/04/19 20:04:20;;;;;;;22.60;13.10;;;;;;;8.47;46.01;98842.95;233422;1217;138984;-63
2022/04/19 20:09:25;;;;;;;22.90;13.20;;;;;;;8.36;46.07;98836.68;233498;1217;140047;-60
2022/04/19 20:14:29;;;;;;;20.70;12.70;;;;;;;8.25;46.09;98841.30;233495;1217;139214;-63
2022/04/19 20:19:32;;;;;;;42.10;27.30;;;;;;;8.22;46.37;98844.28;233415;1217;139037;-63
2022/04/19 20:24:35;;;;;;;21.60;13.30;;;;;;;8.26;46.52;98847.58;233351;1217;138920;-59
2022/04/19 20:29:38;;;;;;;23.90;13.10;;;;;;;8.17;46.61;98847.92;233531;1217;138742;-61
2022/04/19 20:34:41;;;;;;;22.40;13.40;;;;;;;8.05;46.41;98850.34;233406;1217;138976;-58
2022/04/19 20:39:44;;;;;;;20.50;12.30;;;;;;;7.92;46.59;98860.42;233391;1217;138919;-58
2022/04/19 20:44:47;;;;;;;24.40;13.00;;;;;;;7.80;46.59;98858.61;233429;1217;138706;-58
2022/04/19 20:50:11;;;;;;;23.40;13.60;;;;;;;7.70;46.83;98861.09;233535;1217;139042;-59
2022/04/19 20:55:20;;;;;;;22.30;13.60;;;;;;;7.59;46.91;98858.70;233331;1217;139617;-62
2022/04/19 21:00:29;;;;;;;22.00;13.40;;;;;;;7.48;47.09;98861.19;233324;1219;139938;-61
2022/04/19 21:05:32;;;;;;;23.30;13.30;;;;;;;7.39;47.21;98863.64;233434;1217;139043;-61
2022/04/19 21:10:36;;;;;;;23.00;13.30;;;;;;;7.29;47.16;98867.98;233538;1217;138727;-63
2022/04/19 21:15:40;;;;;;;26.60;14.40;;;;;;;7.20;47.19;98870.05;233391;1219;139232;-62
2022/04/19 21:20:43;;;;;;;36.60;20.30;;;;;;;7.15;47.64;98867.85;233516;1218;138594;-63
2022/04/19 21:25:46;;;;;;;28.00;14.30;;;;;;;7.13;47.75;98871.66;233564;1219;138799;-61
2022/04/19 21:31:07;;;;;;;26.70;14.20;;;;;;;7.06;47.95;98873.23;232370;1219;138434;-61
2022/04/19 21:36:10;;;;;;;22.40;13.90;;;;;;;6.99;47.87;98875.55;233450;1220;138832;-61
2022/04/19 21:41:14;;;;;;;25.40;13.80;;;;;;;6.91;48.11;98869.23;233490;1218;139053;-63
2022/04/19 21:46:17;;;;;;;23.20;13.80;;;;;;;6.83;48.22;98867.83;233547;1217;138810;-66
2022/04/19 21:51:20;;;;;;;24.70;13.90;;;;;;;6.76;48.67;98875.23;233626;1217;139814;-62
2022/04/19 21:56:23;;;;;;;24.60;14.10;;;;;;;6.69;48.90;98877.73;233635;1217;139037;-63
2022/04/19 22:01:26;;;;;;;25.90;13.80;;;;;;;6.62;49.13;98878.59;233566;1217;139001;-62
2022/04/19 22:06:29;;;;;;;24.50;13.90;;;;;;;6.56;49.05;98874.83;233672;1217;139198;-61
2022/04/19 22:11:33;;;;;;;27.50;16.10;;;;;;;6.52;49.35;98871.49;233659;1217;140201;-64
2022/04/19 22:16:37;;;;;;;22.30;13.70;;;;;;;6.47;49.70;98870.33;233498;1217;139226;-63
2022/04/19 22:21:41;;;;;;;24.30;13.70;;;;;;;6.41;49.39;98870.62;233807;1217;138924;-62
2022/04/19 22:26:44;;;;;;;24.60;13.50;;;;;;;6.35;49.71;98869.81;233664;1217;139602;-63
2022/04/19 22:31:46;;;;;;;25.10;15.50;;;;;;;6.31;49.87;98873.73;233756;1217;139277;-62
2022/04/19 22:36:49;;;;;;;29.60;16.40;;;;;;;6.25;50.31;98866.78;233640;1217;138733;-63
2022/04/19 22:41:53;;;;;;;28.30;16.00;;;;;;;6.16;50.14;98864.20;233538;1217;139394;-62
2022/04/19 22:46:55;;;;;;;25.80;15.30;;;;;;;6.09;50.59;98861.75;233453;1217;139129;-61
2022/04/19 22:51:59;;;;;;;29.10;17.50;;;;;;;6.02;50.54;98865.41;233543;1217;138753;-61
2022/04/19 22:57:02;;;;;;;28.40;17.30;;;;;;;5.95;50.88;98867.46;233591;1217;138999;-62
2022/04/19 23:02:05;;;;;;;28.20;16.40;;;;;;;5.91;50.89;98867.64;231931;1217;138470;-63
2022/04/19 23:07:08;;;;;;;30.00;17.20;;;;;;;5.83;51.30;98865.89;233592;1217;138748;-63
2022/04/19 23:12:11;;;;;;;25.10;16.10;;;;;;;5.70;51.36;98866.30;233618;1217;139795;-63
2022/04/19 23:17:14;;;;;;;26.30;15.90;;;;;;;5.60;51.38;98867.09;233649;1217;139382;-64
2022/04/19 23:22:18;;;;;;;28.50;18.30;;;;;;;5.55;51.85;98862.92;233644;1217;142474;-64
2022/04/19 23:32:42;;;;;;;28.60;17.90;;;;;;;5.47;52.24;98848.13;233514;1217;138690;-59
2022/04/19 23:37:45;;;;;;;27.60;16.40;;;;;;;5.45;52.34;98843.08;232822;1217;138480;-61
2022/04/19 23:42:48;;;;;;;26.70;14.90;;;;;;;5.44;52.56;98842.98;233606;1217;140177;-61
2022/04/19 23:47:51;;;;;;;22.90;15.20;;;;;;;5.43;52.38;98837.42;233186;1217;139063;-62
2022/04/19 23:52:54;;;;;;;22.80;15.10;;;;;;;5.42;52.62;98837.80;233576;1217;138690;-58
2022/04/19 23:57:57;;;;;;;22.00;14.00;;;;;;;5.39;52.28;98834.77;232128;1217;139095;-61
